sensor_id;sensor_type;location;lat;lon;timestamp;pressure;altitude;pressure_sealevel;temperature;humidity
20696;BME280;10507;52.754;13.040;2023-04-19T00:01:43;101385.50;;;5.54;84.46
20696;BME280;10507;52.754;13.040;2023-04-19T00:04:11;101400.66;;;5.44;84.71
20696;BME280;10507;52.754;13.040;2023-04-19T00:06:41;101404.31;;;5.38;85.47
20696;BME280;10507;52.754;13.040;2023-04-19T00:09:09;101424.59;;;5.38;85.04
20696;BME280;10507;52.754;13.040;2023-04-19T00:11:38;101417.72;;;5.28;85.58
20696;BME280;10507;52.754;13.040;2023-04-19T00:14:06;101420.34;;;5.28;85.48
20696;BME280;10507;52.754;13.040;2023-04-19T00:16:34;101402.84;;;5.19;85.34
20696;BME280;10507;52.754;13.040;2023-04-19T00:19:02;101409.13;;;5.12;85.69
20696;BME280;10507;52.754;13.040;2023-04-19T00:21:30;101401.19;;;5.12;86.02
20696;BME280;10507;52.754;13.040;2023-04-19T00:23:58;101414.56;;;5.01;85.88
20696;BME280;10507;52.754;13.040;2023-04-19T00:26:26;101419.06;;;4.96;86.48
20696;BME280;10507;52.754;13.040;2023-04-19T00:28:55;101420.81;;;4.95;86.23
20696;BME280;10507;52.754;13.040;2023-04-19T00:31:23;101413.84;;;4.90;85.86
20696;BME280;10507;52.754;13.040;2023-04-19T00:33:51;101421.81;;;4.88;86.48
20696;BME280;10507;52.754;13.040;2023-04-19T00:36:19;101421.78;;;4.91;86.28
20696;BME280;10507;52.754;13.040;2023-04-19T00:38:47;101414.78;;;4.87;86.22
20696;BME280;10507;52.754;13.040;2023-04-19T00:41:14;101408.66;;;4.84;86.70
20696;BME280;10507;52.754;13.040;2023-04-19T00:43:42;101410.50;;;4.78;86.64
20696;BME280;10507;52.754;13.040;2023-04-19T00:46:13;101414.06;;;4.73;86.83
20696;BME280;10507;52.754;13.040;2023-04-19T00:48:41;101415.91;;;4.71;86.56
20696;BME280;10507;52.754;13.040;2023-04-19T00:51:09;101405.31;;;4.71;86.66
20696;BME280;10507;52.754;13.040;2023-04-19T00:53:37;101411.50;;;4.70;86.41
20696;BME280;10507;52.754;13.040;2023-04-19T00:56:07;101411.44;;;4.73;86.09
20696;BME280;10507;52.754;13.040;2023-04-19T00:58:36;101393.91;;;4.66;86.86
20696;BME280;10507;52.754;13.040;2023-04-19T01:01:05;101404.53;;;4.64;86.65
20696;BME280;10507;52.754;13.040;2023-04-19T01:03:34;101406.31;;;4.61;86.65
20696;BME280;10507;52.754;13.040;2023-04-19T01:06:03;101418.69;;;4.58;86.83
20696;BME280;10507;52.754;13.040;2023-04-19T01:08:31;101424.03;;;4.55;86.92
20696;BME280;10507;52.754;13.040;2023-04-19T01:10:59;101420.53;;;4.50;87.58
20696;BME280;10507;52.754;13.040;2023-04-19T01:13:27;101439.09;;;4.49;87.38
20696;BME280;10507;52.754;13.040;2023-04-19T01:15:56;101452.22;;;4.56;86.89
20696;BME280;10507;52.754;13.040;2023-04-19T01:18:24;101443.47;;;4.48;87.87
20696;BME280;10507;52.754;13.040;2023-04-19T01:20:56;101438.25;;;4.45;87.63
20696;BME280;10507;52.754;13.040;2023-04-19T01:23:25;101447.91;;;4.49;87.35
20696;BME280;10507;52.754;13.040;2023-04-19T01:25:53;101432.97;;;4.45;87.25
20696;BME280;10507;52.754;13.040;2023-04-19T01:28:21;101438.31;;;4.39;87.73
20696;BME280;10507;52.754;13.040;2023-04-19T01:30:49;101441.91;;;4.35;87.64
20696;BME280;10507;52.754;13.040;2023-04-19T01:33:19;101435.00;;;4.22;88.18
20696;BME280;10507;52.754;13.040;2023-04-19T01:35:47;101462.38;;;4.16;88.40
20696;BME280;10507;52.754;13.040;2023-04-19T01:38:16;101471.22;;;4.12;89.31
20696;BME280;10507;52.754;13.040;2023-04-19T01:40:45;101490.72;;;4.02;89.38
20696;BME280;10507;52.754;13.040;2023-04-19T01:43:16;101508.38;;;3.95;89.77
20696;BME280;10507;52.754;13.040;2023-04-19T01:45:44;101508.47;;;3.86;90.14
20696;BME280;10507;52.754;13.040;2023-04-19T01:48:12;101544.53;;;3.87;90.27
20696;BME280;10507;52.754;13.040;2023-04-19T01:50:39;101539.28;;;3.81;90.73
20696;BME280;10507;52.754;13.040;2023-04-19T01:53:07;101556.94;;;3.77;90.63
20696;BME280;10507;52.754;13.040;2023-04-19T01:55:35;101570.16;;;3.75;91.16
20696;BME280;10507;52.754;13.040;2023-04-19T01:58:04;101561.41;;;3.67;91.35
20696;BME280;10507;52.754;13.040;2023-04-19T02:00:32;101580.78;;;3.68;91.63
20696;BME280;10507;52.754;13.040;2023-04-19T02:03:00;101564.97;;;3.59;91.49
20696;BME280;10507;52.754;13.040;2023-04-19T02:05:28;101587.03;;;3.53;92.01
20696;BME280;10507;52.754;13.040;2023-04-19T02:07:56;101602.00;;;3.52;91.89
20696;BME280;10507;52.754;13.040;2023-04-19T02:10:24;101597.63;;;3.47;92.25
20696;BME280;10507;52.754;13.040;2023-04-19T02:12:52;101609.94;;;3.45;92.14
20696;BME280;10507;52.754;13.040;2023-04-19T02:15:22;101620.50;;;3.48;92.48
20696;BME280;10507;52.754;13.040;2023-04-19T02:17:50;101638.97;;;3.46;92.89
20696;BME280;10507;52.754;13.040;2023-04-19T02:20:18;101662.72;;;3.51;92.59
20696;BME280;10507;52.754;13.040;2023-04-19T02:22:46;101682.06;;;3.53;92.97
20696;BME280;10507;52.754;13.040;2023-04-19T02:25:14;101671.53;;;3.50;93.19
20696;BME280;10507;52.754;13.040;2023-04-19T02:27:42;101688.25;;;3.47;93.21
20696;BME280;10507;52.754;13.040;2023-04-19T02:30:10;101707.59;;;3.56;93.23
20696;BME280;10507;52.754;13.040;2023-04-19T02:32:40;101704.97;;;3.52;93.06
20696;BME280;10507;52.754;13.040;2023-04-19T02:35:08;101709.38;;;3.50;94.03
20696;BME280;10507;52.754;13.040;2023-04-19T02:37:36;101727.00;;;3.44;94.21
20696;BME280;10507;52.754;13.040;2023-04-19T02:40:05;101756.88;;;3.53;94.62
20696;BME280;10507;52.754;13.040;2023-04-19T02:42:33;101764.78;;;3.52;94.22
20696;BME280;10507;52.754;13.040;2023-04-19T02:45:01;101766.56;;;3.47;94.93
20696;BME280;10507;52.754;13.040;2023-04-19T02:47:29;101772.75;;;3.44;95.38
20696;BME280;10507;52.754;13.040;2023-04-19T02:49:58;101790.34;;;3.45;95.57
20696;BME280;10507;52.754;13.040;2023-04-19T02:52:26;101810.59;;;3.48;95.94
20696;BME280;10507;52.754;13.040;2023-04-19T02:54:54;101806.19;;;3.44;96.28
20696;BME280;10507;52.754;13.040;2023-04-19T02:57:22;101814.09;;;3.41;96.06
20696;BME280;10507;52.754;13.040;2023-04-19T02:59:50;101833.47;;;3.44;96.54
20696;BME280;10507;52.754;13.040;2023-04-19T03:02:18;101827.31;;;3.36;96.87
20696;BME280;10507;52.754;13.040;2023-04-19T03:04:46;101841.41;;;3.35;97.24
20696;BME280;10507;52.754;13.040;2023-04-19T03:07:16;101854.59;;;3.37;96.57
20696;BME280;10507;52.754;13.040;2023-04-19T03:09:43;101842.28;;;3.31;96.83
20696;BME280;10507;52.754;13.040;2023-04-19T03:12:11;101848.47;;;3.25;97.12
20696;BME280;10507;52.754;13.040;2023-04-19T03:14:39;101845.81;;;3.25;97.57
20696;BME280;10507;52.754;13.040;2023-04-19T03:17:07;101835.25;;;3.18;97.17
20696;BME280;10507;52.754;13.040;2023-04-19T03:19:35;101838.78;;;3.12;97.91
20696;BME280;10507;52.754;13.040;2023-04-19T03:22:03;101846.69;;;3.09;97.84
20696;BME280;10507;52.754;13.040;2023-04-19T03:24:32;101851.94;;;3.00;98.64
20696;BME280;10507;52.754;13.040;2023-04-19T03:27:03;101880.97;;;3.04;98.96
20696;BME280;10507;52.754;13.040;2023-04-19T03:29:31;101880.09;;;3.02;98.76
20696;BME280;10507;52.754;13.040;2023-04-19T03:32:00;101890.63;;;2.98;99.28
20696;BME280;10507;52.754;13.040;2023-04-19T03:34:28;101888.88;;;2.92;99.21
20696;BME280;10507;52.754;13.040;2023-04-19T03:36:56;101910.88;;;2.89;99.51
20696;BME280;10507;52.754;13.040;2023-04-19T03:39:24;101910.84;;;2.82;100.00
20696;BME280;10507;52.754;13.040;2023-04-19T03:41:53;101924.06;;;2.85;100.00
20696;BME280;10507;52.754;13.040;2023-04-19T03:44:21;101933.69;;;2.84;100.00
20696;BME280;10507;52.754;13.040;2023-04-19T03:46:49;101963.63;;;2.89;100.00
20696;BME280;10507;52.754;13.040;2023-04-19T03:49:17;101953.94;;;2.81;100.00
20696;BME280;10507;52.754;13.040;2023-04-19T03:51:45;101961.81;;;2.78;100.00
20696;BME280;10507;52.754;13.040;2023-04-19T03:54:12;101963.56;;;2.69;100.00
20696;BME280;10507;52.754;13.040;2023-04-19T03:56:40;101987.28;;;2.73;100.00
20696;BME280;10507;52.754;13.040;2023-04-19T03:59:10;101979.34;;;2.68;100.00
20696;BME280;10507;52.754;13.040;2023-04-19T04:01:38;101970.53;;;2.58;100.00
20696;BME280;10507;52.754;13.040;2023-04-19T04:04:08;101993.41;;;2.61;100.00
20696;BME280;10507;52.754;13.040;2023-04-19T04:06:37;102001.31;;;2.62;100.00
20696;BME280;10507;52.754;13.040;2023-04-19T04:09:05;102019.81;;;2.70;100.00
20696;BME280;10507;52.754;13.040;2023-04-19T04:11:33;102018.91;;;2.71;100.00
20696;BME280;10507;52.754;13.040;2023-04-19T04:14:01;102036.56;;;2.83;100.00
20696;BME280;10507;52.754;13.040;2023-04-19T04:16:30;102038.38;;;2.91;100.00
20696;BME280;10507;52.754;13.040;2023-04-19T04:18:58;102040.13;;;3.00;100.00
20696;BME280;10507;52.754;13.040;2023-04-19T04:21:25;102037.56;;;3.12;100.00
20696;BME280;10507;52.754;13.040;2023-04-19T04:23:53;102027.00;;;3.20;100.00
20696;BME280;10507;52.754;13.040;2023-04-19T04:26:21;102011.19;;;3.23;100.00
20696;BME280;10507;52.754;13.040;2023-04-19T04:28:50;102002.41;;;3.26;100.00
20696;BME280;10507;52.754;13.040;2023-04-19T04:31:19;101991.84;;;3.26;100.00
20696;BME280;10507;52.754;13.040;2023-04-19T04:33:48;101993.63;;;3.38;100.00
20696;BME280;10507;52.754;13.040;2023-04-19T04:36:18;101990.97;;;3.38;100.00
20696;BME280;10507;52.754;13.040;2023-04-19T04:38:47;101990.13;;;3.43;100.00
20696;BME280;10507;52.754;13.040;2023-04-19T04:41:16;101977.81;;;3.50;100.00
20696;BME280;10507;52.754;13.040;2023-04-19T04:43:48;101973.41;;;3.57;100.00
20696;BME280;10507;52.754;13.040;2023-04-19T04:46:36;101962.84;;;3.64;100.00
20696;BME280;10507;52.754;13.040;2023-04-19T04:49:06;101964.59;;;3.67;100.00
20696;BME280;10507;52.754;13.040;2023-04-19T04:51:34;101956.66;;;3.82;100.00
20696;BME280;10507;52.754;13.040;2023-04-19T04:54:03;101970.72;;;4.04;100.00
20696;BME280;10507;52.754;13.040;2023-04-19T04:56:31;101960.97;;;4.35;99.48
20696;BME280;10507;52.754;13.040;2023-04-19T04:58:59;101948.44;;;4.74;98.27
20696;BME280;10507;52.754;13.040;2023-04-19T05:01:27;101910.38;;;4.97;97.09
20696;BME280;10507;52.754;13.040;2023-04-19T05:03:56;101830.84;;;5.15;95.08
20696;BME280;10507;52.754;13.040;2023-04-19T05:06:26;101822.72;;;5.38;94.86
20696;BME280;10507;52.754;13.040;2023-04-19T05:08:56;101820.63;;;5.68;94.16
20696;BME280;10507;52.754;13.040;2023-04-19T05:11:34;101740.03;;;5.84;92.48
20696;BME280;10507;52.754;13.040;2023-04-19T05:14:08;101718.41;;;6.18;90.63
20696;BME280;10507;52.754;13.040;2023-04-19T05:16:44;101676.34;;;6.51;89.49
20696;BME280;10507;52.754;13.040;2023-04-19T05:19:16;101572.22;;;6.40;88.35
20696;BME280;10507;52.754;13.040;2023-04-19T05:21:45;101608.56;;;6.81;87.98
20696;BME280;10507;52.754;13.040;2023-04-19T05:24:14;101611.50;;;7.14;86.13
20696;BME280;10507;52.754;13.040;2023-04-19T05:26:43;101500.47;;;6.90;86.29
20696;BME280;10507;52.754;13.040;2023-04-19T05:29:11;101502.91;;;7.00;86.40
20696;BME280;10507;52.754;13.040;2023-04-19T05:31:38;101474.75;;;6.93;85.61
20696;BME280;10507;52.754;13.040;2023-04-19T05:34:07;101428.16;;;6.78;85.67
20696;BME280;10507;52.754;13.040;2023-04-19T05:36:35;101474.91;;;6.85;85.42
20696;BME280;10507;52.754;13.040;2023-04-19T05:39:04;101550.19;;;7.25;85.13
20696;BME280;10507;52.754;13.040;2023-04-19T05:41:32;101595.38;;;8.03;83.58
20696;BME280;10507;52.754;13.040;2023-04-19T05:44:00;101492.28;;;8.77;80.95
20696;BME280;10507;52.754;13.040;2023-04-19T05:46:28;101443.41;;;9.09;78.68
20696;BME280;10507;52.754;13.040;2023-04-19T05:48:56;101475.69;;;9.83;76.97
20696;BME280;10507;52.754;13.040;2023-04-19T05:51:24;101236.59;;;9.56;75.74
20696;BME280;10507;52.754;13.040;2023-04-19T05:53:53;101148.16;;;9.45;75.88
20696;BME280;10507;52.754;13.040;2023-04-19T05:56:24;101269.13;;;9.91;75.34
20696;BME280;10507;52.754;13.040;2023-04-19T05:58:52;101174.78;;;10.16;73.88
20696;BME280;10507;52.754;13.040;2023-04-19T06:01:21;101016.59;;;9.70;73.44
20696;BME280;10507;52.754;13.040;2023-04-19T06:03:49;101134.84;;;9.91;74.11
20696;BME280;10507;52.754;13.040;2023-04-19T06:06:20;101226.09;;;10.01;73.99
20696;BME280;10507;52.754;13.040;2023-04-19T06:08:49;101183.53;;;10.19;73.28
20696;BME280;10507;52.754;13.040;2023-04-19T06:11:20;101064.28;;;9.99;73.01
20696;BME280;10507;52.754;13.040;2023-04-19T06:13:58;101339.91;;;10.94;73.37
20696;BME280;10507;52.754;13.040;2023-04-19T06:16:26;101106.72;;;10.91;71.32
20696;BME280;10507;52.754;13.040;2023-04-19T06:18:54;101171.78;;;10.90;72.11
20696;BME280;10507;52.754;13.040;2023-04-19T06:21:22;100869.81;;;10.34;71.06
20696;BME280;10507;52.754;13.040;2023-04-19T06:23:50;101143.06;;;10.95;71.28
20696;BME280;10507;52.754;13.040;2023-04-19T06:26:17;101154.56;;;11.36;70.74
20696;BME280;10507;52.754;13.040;2023-04-19T06:28:46;101076.47;;;11.49;69.44
20696;BME280;10507;52.754;13.040;2023-04-19T06:31:15;101103.09;;;11.71;68.73
20696;BME280;10507;52.754;13.040;2023-04-19T06:33:43;101005.94;;;11.51;68.44
20696;BME280;10507;52.754;13.040;2023-04-19T06:36:11;101046.56;;;11.59;68.91
20696;BME280;10507;52.754;13.040;2023-04-19T06:38:39;100894.69;;;11.30;68.29
20696;BME280;10507;52.754;13.040;2023-04-19T06:41:07;100952.53;;;11.50;68.46
20696;BME280;10507;52.754;13.040;2023-04-19T06:43:36;101089.31;;;11.78;68.73
20696;BME280;10507;52.754;13.040;2023-04-19T06:46:05;101143.16;;;12.64;66.96
20696;BME280;10507;52.754;13.040;2023-04-19T06:48:35;100890.97;;;12.21;65.84
20696;BME280;10507;52.754;13.040;2023-04-19T06:51:07;100852.44;;;11.90;66.86
20696;BME280;10507;52.754;13.040;2023-04-19T06:53:35;100874.75;;;11.72;67.07
20696;BME280;10507;52.754;13.040;2023-04-19T06:56:04;100758.97;;;11.70;65.60
20696;BME280;10507;52.754;13.040;2023-04-19T06:58:32;100961.78;;;12.15;65.42
20696;BME280;10507;52.754;13.040;2023-04-19T07:01:02;101033.09;;;12.34;67.08
20696;BME280;10507;52.754;13.040;2023-04-19T07:03:30;100874.38;;;12.47;64.74
20696;BME280;10507;52.754;13.040;2023-04-19T07:06:00;100868.44;;;12.58;64.79
20696;BME280;10507;52.754;13.040;2023-04-19T07:08:28;100823.81;;;12.41;64.61
20696;BME280;10507;52.754;13.040;2023-04-19T07:11:14;100730.97;;;12.42;63.78
20696;BME280;10507;52.754;13.040;2023-04-19T07:13:42;100707.22;;;12.36;64.73
20696;BME280;10507;52.754;13.040;2023-04-19T07:16:10;100948.31;;;13.33;62.90
20696;BME280;10507;52.754;13.040;2023-04-19T07:18:39;100911.34;;;13.38;63.27
20696;BME280;10507;52.754;13.040;2023-04-19T07:21:09;100889.41;;;13.91;61.13
20696;BME280;10507;52.754;13.040;2023-04-19T07:23:37;100864.03;;;13.97;61.54
20696;BME280;10507;52.754;13.040;2023-04-19T07:26:05;100806.41;;;13.88;60.82
20696;BME280;10507;52.754;13.040;2023-04-19T07:28:33;100649.13;;;13.86;59.76
20696;BME280;10507;52.754;13.040;2023-04-19T07:31:01;100705.13;;;13.33;61.42
20696;BME280;10507;52.754;13.040;2023-04-19T07:33:29;100557.53;;;13.06;60.82
20696;BME280;10507;52.754;13.040;2023-04-19T07:35:57;100567.22;;;13.23;60.61
20696;BME280;10507;52.754;13.040;2023-04-19T07:38:27;100409.16;;;12.93;60.35
20696;BME280;10507;52.754;13.040;2023-04-19T07:40:55;100510.25;;;13.05;60.07
20696;BME280;10507;52.754;13.040;2023-04-19T07:43:22;100511.16;;;13.18;59.90
20696;BME280;10507;52.754;13.040;2023-04-19T07:45:51;100399.63;;;12.74;59.87
20696;BME280;10507;52.754;13.040;2023-04-19T07:48:19;100383.91;;;12.82;59.74
20696;BME280;10507;52.754;13.040;2023-04-19T07:50:47;100616.41;;;13.07;60.79
20696;BME280;10507;52.754;13.040;2023-04-19T07:53:15;100617.81;;;13.43;60.42
20696;BME280;10507;52.754;13.040;2023-04-19T07:55:45;100378.75;;;12.94;59.61
20696;BME280;10507;52.754;13.040;2023-04-19T07:58:12;100222.91;;;12.45;58.92
20696;BME280;10507;52.754;13.040;2023-04-19T08:00:41;100251.31;;;12.34;59.23
20696;BME280;10507;52.754;13.040;2023-04-19T08:03:09;100447.25;;;12.55;60.19
20696;BME280;10507;52.754;13.040;2023-04-19T08:05:37;100471.28;;;12.71;60.47
20696;BME280;10507;52.754;13.040;2023-04-19T08:08:05;100419.25;;;12.60;60.61
20696;BME280;10507;52.754;13.040;2023-04-19T08:10:33;100431.78;;;12.74;59.04
20696;BME280;10507;52.754;13.040;2023-04-19T08:13:02;100253.88;;;12.35;58.97
20696;BME280;10507;52.754;13.040;2023-04-19T08:15:32;100205.88;;;11.91;60.31
20696;BME280;10507;52.754;13.040;2023-04-19T08:18:16;100190.06;;;11.72;60.19
20696;BME280;10507;52.754;13.040;2023-04-19T08:20:45;100238.06;;;11.89;59.84
20696;BME280;10507;52.754;13.040;2023-04-19T08:23:13;100521.22;;;12.27;61.32
20696;BME280;10507;52.754;13.040;2023-04-19T08:25:50;100389.84;;;12.30;60.31
20696;BME280;10507;52.754;13.040;2023-04-19T08:28:19;100425.78;;;12.26;60.90
20696;BME280;10507;52.754;13.040;2023-04-19T08:30:47;100490.16;;;12.39;61.67
20696;BME280;10507;52.754;13.040;2023-04-19T08:33:15;100487.78;;;12.34;61.29
20696;BME280;10507;52.754;13.040;2023-04-19T08:35:43;100385.00;;;11.92;62.01
20696;BME280;10507;52.754;13.040;2023-04-19T08:38:11;100419.78;;;11.92;62.10
20696;BME280;10507;52.754;13.040;2023-04-19T08:40:43;100318.69;;;11.53;62.69
20696;BME280;10507;52.754;13.040;2023-04-19T08:43:12;100248.41;;;11.20;62.48
20696;BME280;10507;52.754;13.040;2023-04-19T08:45:41;100267.31;;;11.17;62.62
20696;BME280;10507;52.754;13.040;2023-04-19T08:48:13;100327.53;;;11.23;62.34
20696;BME280;10507;52.754;13.040;2023-04-19T08:50:42;100494.28;;;11.52;62.91
20696;BME280;10507;52.754;13.040;2023-04-19T08:53:29;100372.94;;;11.39;62.93
20696;BME280;10507;52.754;13.040;2023-04-19T08:55:57;100282.72;;;11.28;61.86
20696;BME280;10507;52.754;13.040;2023-04-19T08:58:29;100304.88;;;11.30;62.02
20696;BME280;10507;52.754;13.040;2023-04-19T09:01:19;100372.34;;;11.34;62.99
20696;BME280;10507;52.754;13.040;2023-04-19T09:04:01;100424.63;;;11.39;62.97
20696;BME280;10507;52.754;13.040;2023-04-19T09:06:51;100255.56;;;11.20;61.75
20696;BME280;10507;52.754;13.040;2023-04-19T09:09:20;100349.25;;;11.33;62.55
20696;BME280;10507;52.754;13.040;2023-04-19T09:11:51;100221.81;;;11.19;61.59
20696;BME280;10507;52.754;13.040;2023-04-19T09:14:20;100369.06;;;11.44;61.55
20696;BME280;10507;52.754;13.040;2023-04-19T09:16:50;100282.38;;;11.18;62.35
20696;BME280;10507;52.754;13.040;2023-04-19T09:19:18;100186.13;;;10.90;62.13
20696;BME280;10507;52.754;13.040;2023-04-19T09:21:51;100381.50;;;11.30;63.24
20696;BME280;10507;52.754;13.040;2023-04-19T09:24:36;100210.56;;;11.42;60.38
20696;BME280;10507;52.754;13.040;2023-04-19T09:27:08;100168.66;;;11.43;59.70
20696;BME280;10507;52.754;13.040;2023-04-19T09:29:37;100096.31;;;11.17;59.58
20696;BME280;10507;52.754;13.040;2023-04-19T09:32:07;100284.28;;;11.32;61.50
20696;BME280;10507;52.754;13.040;2023-04-19T09:34:35;100068.63;;;11.04;60.24
20696;BME280;10507;52.754;13.040;2023-04-19T09:37:12;100112.13;;;11.06;60.14
20696;BME280;10507;52.754;13.040;2023-04-19T09:40:20;100252.50;;;11.42;60.51
20696;BME280;10507;52.754;13.040;2023-04-19T09:42:48;100141.75;;;11.46;59.40
20696;BME280;10507;52.754;13.040;2023-04-19T09:45:19;100099.75;;;11.48;59.23
20696;BME280;10507;52.754;13.040;2023-04-19T09:48:02;100177.06;;;11.51;60.31
20696;BME280;10507;52.754;13.040;2023-04-19T09:50:31;100130.09;;;11.47;59.31
20696;BME280;10507;52.754;13.040;2023-04-19T09:53:19;100241.94;;;11.69;60.22
20696;BME280;10507;52.754;13.040;2023-04-19T09:55:48;100309.44;;;12.03;59.70
20696;BME280;10507;52.754;13.040;2023-04-19T09:58:27;100144.69;;;11.84;58.79
20696;BME280;10507;52.754;13.040;2023-04-19T10:01:14;100175.47;;;11.77;59.55
20696;BME280;10507;52.754;13.040;2023-04-19T10:03:46;100025.47;;;11.39;59.14
20696;BME280;10507;52.754;13.040;2023-04-19T10:06:17;99945.16;;;11.13;58.99
20696;BME280;10507;52.754;13.040;2023-04-19T10:08:49;100104.72;;;11.26;60.72
20696;BME280;10507;52.754;13.040;2023-04-19T10:11:18;100030.56;;;11.15;60.18
20696;BME280;10507;52.754;13.040;2023-04-19T10:13:49;100132.19;;;11.28;60.17
20696;BME280;10507;52.754;13.040;2023-04-19T10:16:20;100091.06;;;11.30;60.00
20696;BME280;10507;52.754;13.040;2023-04-19T10:18:50;100151.47;;;11.33;60.21
20696;BME280;10507;52.754;13.040;2023-04-19T10:21:19;100062.22;;;11.21;59.93
20696;BME280;10507;52.754;13.040;2023-04-19T10:23:48;100181.38;;;11.39;60.77
20696;BME280;10507;52.754;13.040;2023-04-19T10:26:16;100375.97;;;11.79;61.37
20696;BME280;10507;52.754;13.040;2023-04-19T10:28:44;100317.06;;;11.95;60.95
20696;BME280;10507;52.754;13.040;2023-04-19T10:31:12;100204.81;;;11.93;59.49
20696;BME280;10507;52.754;13.040;2023-04-19T10:33:40;100266.91;;;11.98;61.02
20696;BME280;10507;52.754;13.040;2023-04-19T10:36:13;100158.00;;;11.86;59.29
20696;BME280;10507;52.754;13.040;2023-04-19T10:38:44;100400.75;;;12.27;61.08
20696;BME280;10507;52.754;13.040;2023-04-19T10:41:14;100202.16;;;11.93;59.76
20696;BME280;10507;52.754;13.040;2023-04-19T10:43:46;100190.09;;;12.00;60.00
20696;BME280;10507;52.754;13.040;2023-04-19T10:46:16;100165.94;;;12.02;59.83
20696;BME280;10507;52.754;13.040;2023-04-19T10:49:03;100239.28;;;12.26;59.64
20696;BME280;10507;52.754;13.040;2023-04-19T10:51:34;100283.34;;;12.35;60.68
20696;BME280;10507;52.754;13.040;2023-04-19T10:54:02;100282.88;;;12.43;60.26
20696;BME280;10507;52.754;13.040;2023-04-19T10:56:56;100302.84;;;12.52;60.02
20696;BME280;10507;52.754;13.040;2023-04-19T10:59:27;100269.56;;;12.41;60.44
20696;BME280;10507;52.754;13.040;2023-04-19T11:01:57;100155.16;;;12.58;57.94
20696;BME280;10507;52.754;13.040;2023-04-19T11:07:39;100335.84;;;12.52;60.59
20696;BME280;10507;52.754;13.040;2023-04-19T11:10:09;100181.44;;;12.24;60.86
20696;BME280;10507;52.754;13.040;2023-04-19T11:12:41;99981.03;;;11.65;59.80
20696;BME280;10507;52.754;13.040;2023-04-19T11:15:10;99931.72;;;11.42;60.09
20696;BME280;10507;52.754;13.040;2023-04-19T11:17:38;99944.94;;;11.31;59.70
20696;BME280;10507;52.754;13.040;2023-04-19T11:20:08;100165.41;;;11.52;61.19
20696;BME280;10507;52.754;13.040;2023-04-19T11:22:39;100254.75;;;11.78;61.26
20696;BME280;10507;52.754;13.040;2023-04-19T11:25:09;100198.13;;;11.86;60.32
20696;BME280;10507;52.754;13.040;2023-04-19T11:27:38;100246.50;;;11.81;61.48
20696;BME280;10507;52.754;13.040;2023-04-19T11:30:08;100294.53;;;11.99;61.45
20696;BME280;10507;52.754;13.040;2023-04-19T11:32:37;100350.56;;;12.16;60.90
20696;BME280;10507;52.754;13.040;2023-04-19T11:35:06;100264.25;;;12.27;60.08
20696;BME280;10507;52.754;13.040;2023-04-19T11:37:36;100251.25;;;12.21;59.49
20696;BME280;10507;52.754;13.040;2023-04-19T11:40:07;100305.81;;;12.47;60.06
20696;BME280;10507;52.754;13.040;2023-04-19T11:42:35;100412.25;;;12.72;61.11
20696;BME280;10507;52.754;13.040;2023-04-19T11:45:04;100258.41;;;12.76;58.77
20696;BME280;10507;52.754;13.040;2023-04-19T11:47:48;100341.44;;;12.76;60.49
20696;BME280;10507;52.754;13.040;2023-04-19T11:50:36;100208.09;;;12.40;60.15
20696;BME280;10507;52.754;13.040;2023-04-19T11:53:14;100118.63;;;12.30;58.85
20696;BME280;10507;52.754;13.040;2023-04-19T11:55:44;100186.56;;;12.41;59.89
20696;BME280;10507;52.754;13.040;2023-04-19T11:58:26;100254.44;;;12.55;60.01
20696;BME280;10507;52.754;13.040;2023-04-19T12:00:56;100312.38;;;12.70;60.32
20696;BME280;10507;52.754;13.040;2023-04-19T12:03:26;100126.09;;;12.52;58.81
20696;BME280;10507;52.754;13.040;2023-04-19T12:05:55;100188.91;;;12.60;59.20
20696;BME280;10507;52.754;13.040;2023-04-19T12:08:31;100162.13;;;12.60;58.50
20696;BME280;10507;52.754;13.040;2023-04-19T12:11:01;100207.28;;;12.79;58.24
20696;BME280;10507;52.754;13.040;2023-04-19T12:13:30;100277.63;;;12.68;60.69
20696;BME280;10507;52.754;13.040;2023-04-19T12:15:58;100129.50;;;12.41;59.78
20696;BME280;10507;52.754;13.040;2023-04-19T12:18:26;99847.13;;;11.81;57.60
20696;BME280;10507;52.754;13.040;2023-04-19T12:20:54;99980.88;;;11.81;59.49
20696;BME280;10507;52.754;13.040;2023-04-19T12:23:24;100090.59;;;12.08;58.97
20696;BME280;10507;52.754;13.040;2023-04-19T12:25:52;100132.41;;;12.23;59.83
20696;BME280;10507;52.754;13.040;2023-04-19T12:28:21;99888.00;;;12.23;55.72
20696;BME280;10507;52.754;13.040;2023-04-19T12:30:49;100011.19;;;12.61;55.88
20696;BME280;10507;52.754;13.040;2023-04-19T12:33:18;99612.91;;;12.39;51.42
20696;BME280;10507;52.754;13.040;2023-04-19T12:35:49;99668.34;;;12.50;52.19
20696;BME280;10507;52.754;13.040;2023-04-19T12:38:17;99421.84;;;12.18;50.36
20696;BME280;10507;52.754;13.040;2023-04-19T12:40:45;99587.28;;;12.24;51.45
20696;BME280;10507;52.754;13.040;2023-04-19T12:43:12;99733.16;;;12.42;52.93
20696;BME280;10507;52.754;13.040;2023-04-19T12:45:42;99697.91;;;12.48;52.75
20696;BME280;10507;52.754;13.040;2023-04-19T12:48:10;99939.81;;;12.86;54.24
20696;BME280;10507;52.754;13.040;2023-04-19T12:50:38;99696.84;;;12.75;51.98
20696;BME280;10507;52.754;13.040;2023-04-19T12:53:06;99826.22;;;12.88;52.42
20696;BME280;10507;52.754;13.040;2023-04-19T12:55:34;99896.69;;;13.15;53.07
20696;BME280;10507;52.754;13.040;2023-04-19T12:58:02;99852.00;;;13.02;53.55
20696;BME280;10507;52.754;13.040;2023-04-19T13:00:30;99789.84;;;12.73;54.42
20696;BME280;10507;52.754;13.040;2023-04-19T13:03:00;99847.41;;;12.55;55.25